createdAt,value
2023-04-30T00:01:51.227Z,18.43
2023-04-30T00:05:52.471Z,15.37
2023-04-30T00:09:53.836Z,17.27
2023-04-30T00:13:56.412Z,17.47
2023-04-30T00:17:57.621Z,23.37
2023-04-30T00:22:00.653Z,18.73
2023-04-30T00:26:02.034Z,20.77
2023-04-30T00:30:03.754Z,17.03
2023-04-30T00:34:05.129Z,19.40
2023-04-30T00:38:06.285Z,18.63
2023-04-30T00:42:12.554Z,18.60
2023-04-30T00:46:13.782Z,19.23
2023-04-30T00:50:15.570Z,21.00
2023-04-30T00:54:17.529Z,19.10
2023-04-30T00:58:18.788Z,23.33
2023-04-30T01:02:20.213Z,23.67
2023-04-30T01:06:21.624Z,21.70
2023-04-30T01:10:26.557Z,20.50
2023-04-30T01:14:31.533Z,21.33
2023-04-30T01:18:45.367Z,21.47
2023-04-30T01:23:11.927Z,21.77
2023-04-30T01:27:43.978Z,22.43
2023-04-30T01:31:45.529Z,22.40
2023-04-30T01:35:55.888Z,22.10
2023-04-30T01:40:11.496Z,24.50
2023-04-30T01:44:16.433Z,23.00
2023-04-30T01:48:24.467Z,23.47
2023-04-30T01:52:31.969Z,24.97
2023-04-30T01:56:40.614Z,23.30
2023-04-30T02:00:42.070Z,22.27
2023-04-30T02:04:43.397Z,26.83
2023-04-30T02:08:44.591Z,26.60
2023-04-30T02:12:45.931Z,26.53
2023-04-30T02:16:47.096Z,23.13
2023-04-30T02:20:48.245Z,24.50
2023-04-30T02:24:49.592Z,24.60
2023-04-30T02:28:50.767Z,27.97
2023-04-30T02:32:51.844Z,23.57
2023-04-30T02:36:53.049Z,27.90
2023-04-30T02:40:54.223Z,31.00
2023-04-30T02:44:55.374Z,28.00
2023-04-30T02:48:56.846Z,26.80
2023-04-30T02:52:58.113Z,29.67
2023-04-30T02:56:59.251Z,25.37
2023-04-30T03:01:00.431Z,28.30
2023-04-30T03:05:02.282Z,25.27
2023-04-30T03:09:03.455Z,23.83
2023-04-30T03:13:04.614Z,23.00
2023-04-30T03:17:06.285Z,25.37
2023-04-30T03:21:09.889Z,26.30
2023-04-30T03:25:11.149Z,25.37
2023-04-30T03:29:12.539Z,27.17
2023-04-30T03:33:13.749Z,24.90
2023-04-30T03:37:14.969Z,23.67
2023-04-30T03:41:16.153Z,24.67
2023-04-30T03:45:18.216Z,26.70
2023-04-30T03:49:19.471Z,24.30
2023-04-30T03:53:20.666Z,23.67
2023-04-30T03:57:21.943Z,26.93
2023-04-30T04:01:23.312Z,22.00
2023-04-30T04:05:24.861Z,23.77
2023-04-30T04:09:26.533Z,26.53
2023-04-30T04:13:27.700Z,21.13
2023-04-30T04:17:28.875Z,25.37
2023-04-30T04:21:30.951Z,25.83
2023-04-30T04:25:32.730Z,24.17
2023-04-30T04:29:33.911Z,23.73
2023-04-30T04:33:36.356Z,22.83
2023-04-30T04:37:37.597Z,25.60
2023-04-30T04:41:38.779Z,21.47
2023-04-30T04:45:40.436Z,22.67
2023-04-30T04:51:10.486Z,24.20
2023-04-30T04:55:12.193Z,23.97
2023-04-30T04:59:13.527Z,25.40
2023-04-30T05:03:14.855Z,25.30
2023-04-30T05:07:17.269Z,27.07
2023-04-30T05:11:18.441Z,29.87
2023-04-30T05:15:19.914Z,21.60
2023-04-30T05:19:21.476Z,26.70
2023-04-30T05:23:22.656Z,24.13
2023-04-30T05:27:23.853Z,22.87
2023-04-30T05:31:25.033Z,26.33
2023-04-30T05:35:26.404Z,27.10
2023-04-30T05:39:27.565Z,26.70
2023-04-30T05:43:28.728Z,21.07
2023-04-30T05:47:30.535Z,21.43
2023-04-30T05:51:32.016Z,20.97
2023-04-30T05:55:33.878Z,23.17
2023-04-30T05:59:35.069Z,23.53
2023-04-30T06:03:37.727Z,21.80
2023-04-30T06:07:38.896Z,22.80
2023-04-30T06:11:42.374Z,21.00
2023-04-30T06:15:43.040Z,17.83
2023-04-30T06:19:44.210Z,17.57
2023-04-30T06:23:45.368Z,19.03
2023-04-30T06:27:46.528Z,17.63
2023-04-30T06:31:47.828Z,18.00
2023-04-30T06:35:51.047Z,16.50
2023-04-30T06:39:52.239Z,16.90
2023-04-30T06:43:53.489Z,15.33
2023-04-30T06:47:55.168Z,13.30
2023-04-30T06:51:57.932Z,15.07
2023-04-30T06:56:00.001Z,13.90
2023-04-30T07:00:01.578Z,14.63
2023-04-30T07:04:02.832Z,14.03
2023-04-30T07:08:06.182Z,12.53
2023-04-30T07:12:07.478Z,10.37
2023-04-30T07:16:10.087Z,10.07
2023-04-30T07:20:14.026Z,12.23
2023-04-30T07:24:15.212Z,10.33
2023-04-30T07:28:16.402Z,9.43
2023-04-30T07:32:17.686Z,11.40
2023-04-30T07:36:18.851Z,8.80
2023-04-30T07:40:32.686Z,9.80
2023-04-30T07:44:23.175Z,8.40
2023-04-30T07:48:24.346Z,7.53
2023-04-30T07:52:25.522Z,6.17
2023-04-30T07:56:26.910Z,9.13
2023-04-30T08:00:28.866Z,6.43
2023-04-30T08:04:30.107Z,6.13
2023-04-30T08:08:31.319Z,7.73
2023-04-30T08:12:37.053Z,4.60
2023-04-30T08:16:38.224Z,7.07
2023-04-30T08:20:39.359Z,5.27
2023-04-30T08:24:40.616Z,4.10
2023-04-30T08:28:41.760Z,3.77
2023-04-30T08:32:42.962Z,4.33
2023-04-30T08:36:44.226Z,4.53
2023-04-30T08:40:51.693Z,4.03
2023-04-30T08:44:52.045Z,5.13
2023-04-30T08:48:53.622Z,6.07
2023-04-30T08:52:54.875Z,3.30
2023-04-30T08:56:56.437Z,4.87
2023-04-30T09:00:59.009Z,3.40
2023-04-30T09:05:00.188Z,3.93
2023-04-30T09:09:10.824Z,3.30
2023-04-30T09:13:13.690Z,4.07
2023-04-30T09:17:18.672Z,3.27
2023-04-30T09:21:34.456Z,3.60
2023-04-30T09:25:40.733Z,3.37
2023-04-30T09:29:41.913Z,3.30
2023-04-30T09:33:46.711Z,4.20
2023-04-30T09:37:47.844Z,4.00
2023-04-30T09:41:50.958Z,3.87
2023-04-30T09:45:52.205Z,3.70
2023-04-30T09:49:53.565Z,4.70
2023-04-30T09:53:58.393Z,4.13
2023-04-30T09:57:59.848Z,4.27
2023-04-30T10:02:03.078Z,3.13
2023-04-30T10:06:05.468Z,3.40
2023-04-30T10:10:10.373Z,4.63
2023-04-30T10:14:12.835Z,5.37
2023-04-30T10:18:17.809Z,3.00
2023-04-30T10:22:19.367Z,3.50
2023-04-30T10:26:21.991Z,3.20
2023-04-30T10:30:23.477Z,3.70
2023-04-30T10:34:37.771Z,3.47
2023-04-30T10:38:40.163Z,3.23
2023-04-30T10:42:49.553Z,3.80
2023-04-30T10:46:59.019Z,3.17
2023-04-30T10:51:00.289Z,3.67
2023-04-30T10:55:06.884Z,3.10
2023-04-30T10:59:08.261Z,3.40
2023-04-30T11:03:09.468Z,5.00
2023-04-30T11:07:10.922Z,3.50
2023-04-30T11:11:17.424Z,4.20
2023-04-30T11:15:21.934Z,3.30
2023-04-30T11:19:24.401Z,4.67
2023-04-30T11:23:38.523Z,3.70
2023-04-30T11:27:33.582Z,3.70
2023-04-30T11:31:34.882Z,2.60
2023-04-30T11:35:36.097Z,5.17
2023-04-30T11:39:38.883Z,7.57
2023-04-30T11:43:40.044Z,3.33
2023-04-30T11:47:46.720Z,2.70
2023-04-30T11:51:49.908Z,2.70
2023-04-30T11:55:55.019Z,2.80
2023-04-30T11:59:58.049Z,3.43
2023-04-30T12:03:59.863Z,4.53
2023-04-30T12:08:05.707Z,2.80
2023-04-30T12:12:06.862Z,3.23
2023-04-30T12:16:08.477Z,3.53
2023-04-30T12:20:12.168Z,4.00
2023-04-30T12:24:16.377Z,3.57
2023-04-30T12:28:17.645Z,2.50
2023-04-30T12:32:18.989Z,2.80
2023-04-30T12:36:20.172Z,5.70
2023-04-30T12:40:25.240Z,2.80
2023-04-30T12:44:28.594Z,3.27
2023-04-30T12:48:29.762Z,3.33
2023-04-30T12:52:33.047Z,2.70
2023-04-30T12:56:34.719Z,3.50
2023-04-30T13:00:50.778Z,8.93
2023-04-30T13:04:53.053Z,2.60
2023-04-30T13:08:58.399Z,2.70
2023-04-30T13:12:57.821Z,2.60
2023-04-30T13:16:59.366Z,2.30
2023-04-30T13:21:00.540Z,2.60
2023-04-30T13:25:02.601Z,3.57
2023-04-30T13:29:03.769Z,2.47
2023-04-30T13:33:04.984Z,2.93
2023-04-30T13:37:06.256Z,2.60
2023-04-30T13:41:07.547Z,2.20
2023-04-30T13:45:09.242Z,3.23
2023-04-30T13:49:10.430Z,2.60
2023-04-30T13:53:11.563Z,3.40
2023-04-30T13:57:12.818Z,5.20
2023-04-30T14:01:14.106Z,2.40
2023-04-30T14:05:15.664Z,2.30
2023-04-30T14:09:17.438Z,2.60
2023-04-30T14:13:18.993Z,2.70
2023-04-30T14:17:20.647Z,2.20
2023-04-30T14:21:21.934Z,2.83
2023-04-30T14:25:23.474Z,3.10
2023-04-30T14:29:24.665Z,3.67
2023-04-30T14:33:26.142Z,3.00
2023-04-30T14:37:27.291Z,3.50
2023-04-30T14:41:28.358Z,2.63
2023-04-30T14:45:29.969Z,3.10
2023-04-30T14:49:31.486Z,3.30
2023-04-30T14:53:32.926Z,3.47
2023-04-30T14:57:34.452Z,3.43
2023-04-30T15:01:35.655Z,3.10
2023-04-30T15:05:37.228Z,3.50
2023-04-30T15:09:38.574Z,2.50
2023-04-30T15:13:39.845Z,2.40
2023-04-30T15:17:40.996Z,2.63
2023-04-30T15:21:42.774Z,2.40
2023-04-30T15:25:44.044Z,2.63
2023-04-30T15:29:45.907Z,2.40
2023-04-30T15:33:47.117Z,2.40
2023-04-30T15:37:48.284Z,2.50
2023-04-30T15:41:49.448Z,2.50
2023-04-30T15:45:50.601Z,2.70
2023-04-30T15:49:51.759Z,2.47
2023-04-30T15:53:53.298Z,2.97
2023-04-30T15:57:54.552Z,3.00
2023-04-30T16:01:55.760Z,2.93
2023-04-30T16:05:57.226Z,2.40
2023-04-30T16:09:59.346Z,2.57
2023-04-30T16:14:01.295Z,3.50
2023-04-30T16:18:02.709Z,3.03
2023-04-30T16:22:04.179Z,2.50
2023-04-30T16:26:05.636Z,3.67
2023-04-30T16:30:08.435Z,3.27
2023-04-30T16:34:12.740Z,4.70
2023-04-30T16:38:14.027Z,3.40
2023-04-30T16:42:15.326Z,3.00
2023-04-30T16:46:16.647Z,4.47
2023-04-30T16:50:17.860Z,3.87
2023-04-30T16:54:19.253Z,3.07
2023-04-30T16:58:20.592Z,3.90
2023-04-30T17:02:22.118Z,3.10
2023-04-30T17:06:23.481Z,3.00
2023-04-30T17:10:25.883Z,2.80
2023-04-30T17:14:28.002Z,4.37
2023-04-30T17:18:29.304Z,3.40
2023-04-30T17:22:30.911Z,3.00
2023-04-30T17:26:32.312Z,5.63
2023-04-30T17:30:33.728Z,2.67
2023-04-30T17:34:35.246Z,17.07
2023-04-30T17:38:36.661Z,9.03
2023-04-30T17:42:38.668Z,4.63
2023-04-30T17:46:40.711Z,3.10
2023-04-30T17:50:42.062Z,3.30
2023-04-30T17:54:43.362Z,5.90
2023-04-30T17:58:45.282Z,6.53
2023-04-30T18:02:46.802Z,3.00
2023-04-30T18:06:48.419Z,3.30
2023-04-30T18:10:49.836Z,3.40
2023-04-30T18:14:51.144Z,4.90
2023-04-30T18:18:52.445Z,4.20
2023-04-30T18:22:53.957Z,5.30
2023-04-30T18:26:55.449Z,7.93
2023-04-30T18:30:56.907Z,6.80
2023-04-30T18:34:58.587Z,4.97
2023-04-30T18:38:59.914Z,8.40
2023-04-30T18:43:01.311Z,7.87
2023-04-30T18:47:04.188Z,5.10
2023-04-30T18:51:05.690Z,5.60
2023-04-30T18:55:08.244Z,5.67
2023-04-30T18:59:10.107Z,19.40
2023-04-30T19:03:11.678Z,12.00
2023-04-30T19:07:13.724Z,10.37
2023-04-30T19:11:15.791Z,8.63
2023-04-30T19:15:18.008Z,7.80
2023-04-30T19:19:19.336Z,10.07
2023-04-30T19:23:20.762Z,16.03
2023-04-30T19:27:22.200Z,21.33
2023-04-30T19:31:23.815Z,13.53
2023-04-30T19:35:25.351Z,8.57
2023-04-30T19:39:33.952Z,4.03
2023-04-30T19:43:35.653Z,5.07
2023-04-30T19:47:37.530Z,5.50
2023-04-30T19:51:39.151Z,5.57
2023-04-30T19:55:40.811Z,4.80
2023-04-30T19:59:42.894Z,5.37
2023-04-30T20:03:44.397Z,4.90
2023-04-30T20:07:45.975Z,5.87
2023-04-30T20:11:49.053Z,10.43
2023-04-30T20:15:50.988Z,8.70
2023-04-30T20:19:52.127Z,4.13
2023-04-30T20:23:53.505Z,8.20
2023-04-30T20:27:55.371Z,7.60
2023-04-30T20:31:57.618Z,7.77
2023-04-30T20:35:59.144Z,10.57
2023-04-30T20:40:00.806Z,4.27
2023-04-30T20:44:02.133Z,7.97
2023-04-30T20:48:03.390Z,6.43
2023-04-30T20:52:05.051Z,5.30
2023-04-30T20:56:06.282Z,5.80
2023-04-30T21:00:09.036Z,6.63
2023-04-30T21:04:10.572Z,6.90
2023-04-30T21:08:11.745Z,5.67
2023-04-30T21:12:12.904Z,6.90
2023-04-30T21:16:14.260Z,4.60
2023-04-30T21:20:15.498Z,4.53
2023-04-30T21:24:16.662Z,6.37
2023-04-30T21:28:17.831Z,5.00
2023-04-30T21:32:19.109Z,6.03
2023-04-30T21:36:21.312Z,7.33
2023-04-30T21:40:22.455Z,3.83
2023-04-30T21:44:24.237Z,8.70
2023-04-30T21:48:25.827Z,5.33
2023-04-30T21:52:27.177Z,4.23
2023-04-30T21:56:28.503Z,4.17
2023-04-30T22:00:29.699Z,3.87
2023-04-30T22:04:31.153Z,4.43
2023-04-30T22:08:32.686Z,6.20
2023-04-30T22:12:34.430Z,5.47
2023-04-30T22:16:35.623Z,5.00
2023-04-30T22:20:36.763Z,3.70
2023-04-30T22:24:37.972Z,6.00
2023-04-30T22:28:39.164Z,4.03
2023-04-30T22:32:40.406Z,3.90
2023-04-30T22:36:42.829Z,3.97
2023-04-30T22:40:44.608Z,4.60
2023-04-30T22:44:46.015Z,5.53
2023-04-30T22:48:47.476Z,4.37
2023-04-30T22:52:49.188Z,3.87
2023-04-30T22:56:50.587Z,3.43
2023-04-30T23:00:51.951Z,4.00
2023-04-30T23:04:53.370Z,6.10
2023-04-30T23:08:54.888Z,6.30
2023-04-30T23:12:58.124Z,4.60
2023-04-30T23:17:00.119Z,4.40
2023-04-30T23:21:01.567Z,4.07
2023-04-30T23:25:03.119Z,6.87
2023-04-30T23:29:04.686Z,4.57
2023-04-30T23:33:06.077Z,6.50
2023-04-30T23:37:08.428Z,5.90
2023-04-30T23:41:09.741Z,6.20
2023-04-30T23:45:11.177Z,5.20
2023-04-30T23:49:12.424Z,6.83
2023-04-30T23:53:15.589Z,4.33
2023-04-30T23:57:17.043Z,3.73
